Time;durP1;ratioP1;P1;durP2;ratioP2;P2;SDS_P1;SDS_P2;PMS_P1;PMS_P2;Temp;Humidity;BMP_temperature;BMP_pressure;BME280_temperature;BME280_humidity;BME280_pressure;Samples;Min_cycle;Max_cycle;Signal;HPM_P1;HPM_P2
2021/05/06 00:34:05;;;;;;;11.80;1.60;;;;;;;13.71;84.86;98208.31;5092746;28;20134;-75
2021/05/06 00:36:32;;;;;;;7.47;0.75;;;;;;;13.76;85.55;98221.56;5091576;28;20063;-74
2021/05/06 00:39:00;;;;;;;0.33;0.33;;;;;;;13.47;85.48;98201.94;5091584;28;20032;-77
2021/05/06 00:41:50;;;;;;;1.40;0.88;;;;;;;13.75;85.63;98208.91;5091719;28;20286;-73
2021/05/06 00:55:32;;;;;;;0.77;0.77;;;;;;;13.60;84.48;98218.41;5093234;28;20097;-74
2021/05/06 01:06:06;;;;;;;0.50;0.50;;;;;;;13.23;85.41;98231.59;5054028;28;20029;-78
2021/05/06 01:08:35;;;;;;;0.82;0.82;;;;;;;13.31;85.19;98255.03;5064160;28;20082;-74
2021/05/06 01:11:11;;;;;;;0.52;0.52;;;;;;;13.28;85.57;98234.53;5095582;28;20031;-73
2021/05/06 01:13:39;;;;;;;0.47;0.47;;;;;;;13.25;85.35;98238.25;5095804;28;20448;-73
2021/05/06 01:16:05;;;;;;;0.90;0.90;;;;;;;13.11;85.58;98230.53;5094833;28;20032;-74
2021/05/06 01:18:30;;;;;;;0.55;0.55;;;;;;;12.92;85.52;98256.72;5095106;28;20429;-76
2021/05/06 01:20:59;;;;;;;0.70;0.70;;;;;;;12.82;86.35;98233.03;5094535;28;20028;-75
2021/05/06 01:23:27;;;;;;;0.65;0.65;;;;;;;12.63;88.28;98221.94;5094816;28;20028;-77
2021/05/06 01:26:00;;;;;;;0.80;0.50;;;;;;;12.55;87.50;98233.78;5094723;28;20032;-75
2021/05/06 01:28:29;;;;;;;0.40;0.40;;;;;;;12.70;87.73;98251.34;5094768;28;20491;-74
2021/05/06 01:33:53;;;;;;;1.40;1.30;;;;;;;12.64;87.66;98248.41;5086672;28;20596;-74
2021/05/06 01:36:23;;;;;;;0.98;0.98;;;;;;;12.71;86.75;98252.91;5094491;28;20028;-74
2021/05/06 01:44:14;;;;;;;0.65;0.65;;;;;;;12.74;83.38;98243.63;5096255;28;20038;-73
2021/05/06 01:47:03;;;;;;;1.02;0.93;;;;;;;12.80;81.95;98252.88;5094795;28;20472;-76
2021/05/06 01:49:57;;;;;;;0.38;0.38;;;;;;;12.85;81.42;98259.81;5094308;28;20117;-75
2021/05/06 01:57:32;;;;;;;2.42;0.85;;;;;;;12.98;77.76;98271.50;5095861;28;20115;-75
2021/05/06 01:58:04;;;;;;;0.40;0.40;;;;;;;12.78;77.34;98201.91;5095215;28;20089;-76
2021/05/06 02:00:32;;;;;;;0.30;0.30;;;;;;;13.12;76.31;98256.25;5094050;28;20052;-76
2021/05/06 02:02:59;;;;;;;;;;;;;;;13.31;74.31;98255.03;5094667;28;20085;-76
2021/05/06 02:05:24;;;;;;;0.45;0.45;;;;;;;13.36;75.36;98257.16;5094122;28;19908;-75
2021/05/06 02:07:50;;;;;;;0.68;0.68;;;;;;;13.25;74.93;98270.75;5094147;28;20468;-74
2021/05/06 02:10:19;;;;;;;0.40;0.40;;;;;;;12.99;74.76;98239.78;5093502;28;20031;-74
2021/05/06 02:12:45;;;;;;;0.30;0.30;;;;;;;12.93;75.08;98231.31;5093863;28;20043;-75
2021/05/06 02:15:36;;;;;;;0.30;0.30;;;;;;;12.73;74.95;98213.59;5093755;28;20031;-73
2021/05/06 02:18:01;;;;;;;0.20;0.20;;;;;;;13.13;74.46;98282.78;5094702;28;20475;-75
2021/05/06 02:20:27;;;;;;;1.92;1.30;;;;;;;12.91;73.91;98238.53;5093868;28;20020;-74
2021/05/06 02:22:52;;;;;;;0.20;0.20;;;;;;;12.91;73.59;98239.31;5093620;28;20487;-75
2021/05/06 02:25:19;;;;;;;0.32;0.32;;;;;;;13.21;74.31;98284.00;5093285;28;20453;-74
2021/05/06 02:27:45;;;;;;;0.30;0.30;;;;;;;12.85;74.15;98252.25;5093418;28;20062;-75
2021/05/06 02:30:11;;;;;;;0.55;0.55;;;;;;;12.80;74.69;98246.56;5093513;28;20020;-74
2021/05/06 02:32:37;;;;;;;0.60;0.60;;;;;;;12.71;74.48;98241.81;5093351;28;20059;-77
2021/05/06 02:35:03;;;;;;;0.40;0.40;;;;;;;12.99;74.15;98290.47;5093526;28;20028;-74
2021/05/06 02:37:29;;;;;;;1.45;1.05;;;;;;;12.60;75.16;98239.47;5093241;28;20035;-77
2021/05/06 02:39:55;;;;;;;1.55;0.55;;;;;;;12.66;74.01;98255.50;5094073;28;20036;-77
2021/05/06 02:42:20;;;;;;;0.68;0.68;;;;;;;12.45;74.02;98235.00;5093296;28;20043;-76
2021/05/06 02:44:46;;;;;;;0.45;0.45;;;;;;;12.87;74.57;98310.81;5093129;28;20028;-75
2021/05/06 02:47:11;;;;;;;1.10;1.08;;;;;;;12.73;75.21;98297.53;5093115;28;20043;-75
2021/05/06 02:49:43;;;;;;;0.43;0.43;;;;;;;12.75;74.62;98302.63;5093453;28;20050;-73
2021/05/06 02:52:14;;;;;;;0.20;0.20;;;;;;;12.52;74.45;98262.41;5093179;28;20028;-75
2021/05/06 02:54:43;;;;;;;0.73;0.60;;;;;;;12.83;73.86;98301.09;5093161;28;20027;-76
2021/05/06 03:05:02;;;;;;;0.30;0.30;;;;;;;13.01;71.00;98320.53;5094638;28;20408;-76
2021/05/06 03:07:30;;;;;;;1.40;0.70;;;;;;;13.09;70.32;98316.19;5092617;28;20021;-75
2021/05/06 03:10:09;;;;;;;0.20;0.20;;;;;;;13.09;70.17;98329.28;5092935;28;20435;-75
2021/05/06 03:23:30;;;;;;;3.42;0.95;;;;;;;12.68;69.09;98350.81;5093904;28;20042;-76
2021/05/06 03:25:56;;;;;;;0.30;0.30;;;;;;;12.42;70.10;98313.50;5092469;28;20119;-76
2021/05/06 03:28:33;;;;;;;0.30;0.30;;;;;;;12.91;70.11;98377.97;5092821;28;20096;-77
2021/05/06 03:31:14;;;;;;;0.40;0.40;;;;;;;12.61;69.48;98345.56;5092810;28;20032;-74
2021/05/06 03:42:05;;;;;;;0.25;0.25;;;;;;;13.98;64.41;98376.88;5093617;28;20065;-74
2021/05/06 04:35:57;;;;;;;0.13;0.13;;;;;;;22.02;41.35;98455.00;5097268;28;20581;-74
2021/05/06 04:38:23;;;;;;;6.28;0.30;;;;;;;22.48;39.91;98459.06;5095205;28;20028;-75
2021/05/06 05:04:54;;;;;;;0.30;0.30;;;;;;;25.80;33.73;98469.03;5096475;28;20035;-75
2021/05/06 05:27:49;;;;;;;0.17;0.17;;;;;;;30.85;25.32;98495.88;5095910;28;20112;-80
2021/05/06 05:30:16;;;;;;;0.20;0.20;;;;;;;30.17;27.38;98477.06;5095065;28;20482;-80
2021/05/06 05:32:41;;;;;;;0.15;0.15;;;;;;;31.41;25.39;98493.50;5094996;28;20032;-80
2021/05/06 05:35:12;;;;;;;0.00;0.00;;;;;;;32.74;24.13;98506.66;5094703;28;20540;-77
2021/05/06 05:37:46;;;;;;;0.32;0.32;;;;;;;32.49;23.02;98500.31;5094213;28;20509;-77
2021/05/06 05:56:08;;;;;;;0.00;0.00;;;;;;;33.40;21.99;98514.00;5095619;28;20028;-78
2021/05/06 05:58:33;;;;;;;0.00;0.00;;;;;;;32.30;22.95;98516.00;5094188;28;20032;-78
2021/05/06 06:00:59;;;;;;;0.80;0.35;;;;;;;33.43;21.75;98518.53;5093775;28;20435;-77
2021/05/06 06:03:24;;;;;;;2.67;1.08;;;;;;;34.21;21.17;98513.66;5094149;28;20399;-78
2021/05/06 06:05:53;;;;;;;0.10;0.10;;;;;;;34.21;21.85;98530.88;5094492;28;20505;-78
2021/05/06 06:08:21;;;;;;;0.10;0.10;;;;;;;35.16;19.64;98511.88;5094033;28;20113;-80
2021/05/06 06:10:47;;;;;;;0.10;0.00;;;;;;;33.91;21.30;98527.22;5093842;28;20020;-79
2021/05/06 06:13:12;;;;;;;0.20;0.20;;;;;;;34.62;20.46;98541.06;5093530;28;20035;-73
2021/05/06 06:15:51;;;;;;;0.10;0.10;;;;;;;33.97;21.37;98523.31;5093342;28;20411;-74
2021/05/06 06:19:00;;;;;;;0.28;0.28;;;;;;;34.31;20.46;98511.53;5093190;28;20024;-75
2021/05/06 06:23:32;;;;;;;2.40;0.60;;;;;;;36.11;18.51;98521.25;5094635;28;20085;-74
2021/05/06 06:25:59;;;;;;;0.85;0.70;;;;;;;37.08;17.72;98546.97;5094454;28;20028;-74
2021/05/06 06:28:26;;;;;;;0.40;0.40;;;;;;;36.88;18.12;98542.84;5093066;28;20552;-75
2021/05/06 06:30:53;;;;;;;0.35;0.35;;;;;;;36.56;17.98;98515.56;5093034;28;20059;-74
2021/05/06 06:33:19;;;;;;;0.50;0.50;;;;;;;36.26;18.02;98540.25;5109119;28;20031;-76
2021/05/06 06:35:44;;;;;;;0.25;0.25;;;;;;;36.15;19.12;98543.81;5113149;28;20420;-77
2021/05/06 06:38:10;;;;;;;0.73;0.57;;;;;;;36.27;18.09;98531.00;5112899;28;20468;-75
2021/05/06 06:40:35;;;;;;;0.10;0.10;;;;;;;36.88;16.96;98520.53;5113327;28;20028;-76
2021/05/06 06:43:01;;;;;;;0.30;0.20;;;;;;;35.34;18.39;98516.06;5112766;28;20030;-75
2021/05/06 06:45:26;;;;;;;7.35;1.73;;;;;;;33.65;20.93;98550.25;5113779;28;20024;-79
2021/05/06 06:47:55;;;;;;;0.40;0.40;;;;;;;35.23;19.79;98547.56;5113525;28;20020;-77
2021/05/06 06:50:21;;;;;;;0.40;0.30;;;;;;;35.43;18.85;98528.88;5113337;28;20028;-76
2021/05/06 06:52:47;;;;;;;15.45;0.60;;;;;;;35.10;16.60;98537.31;5113098;28;20083;-74
2021/05/06 06:55:13;;;;;;;0.20;0.20;;;;;;;34.60;20.33;98560.28;5112933;28;20031;-74
2021/05/06 06:57:38;;;;;;;0.00;0.00;;;;;;;33.99;19.26;98566.47;5113088;28;20016;-74
2021/05/06 07:00:06;;;;;;;0.20;0.10;;;;;;;33.96;20.33;98559.06;5112947;28;20044;-76
2021/05/06 07:02:32;;;;;;;0.35;0.20;;;;;;;33.33;19.83;98545.66;5113800;28;20028;-74
2021/05/06 07:04:58;;;;;;;13.80;0.30;;;;;;;32.70;20.84;98504.22;5113395;28;20448;-76
2021/05/06 07:07:24;;;;;;;0.25;0.25;;;;;;;31.79;23.19;98558.88;5113010;28;20023;-75
2021/05/06 07:09:49;;;;;;;6.45;0.20;;;;;;;31.69;22.97;98526.59;5112702;28;20468;-74
2021/05/06 07:12:15;;;;;;;0.08;0.08;;;;;;;31.45;23.44;98554.59;5113081;28;20034;-75
2021/05/06 07:14:40;;;;;;;0.10;0.10;;;;;;;31.07;23.48;98551.28;5112811;28;20036;-75
2021/05/06 07:17:05;;;;;;;0.10;0.10;;;;;;;30.59;24.05;98557.09;5112923;28;20471;-75
2021/05/06 07:19:31;;;;;;;0.20;0.20;;;;;;;31.26;21.60;98531.53;5113961;28;20024;-79
2021/05/06 07:21:57;;;;;;;0.38;0.35;;;;;;;30.73;23.82;98537.63;5113444;28;20023;-76
2021/05/06 07:24:22;;;;;;;0.90;0.77;;;;;;;30.92;22.58;98554.25;5113387;28;20475;-75
2021/05/06 07:26:48;;;;;;;0.10;0.10;;;;;;;30.81;22.88;98541.16;5113282;28;20392;-76
2021/05/06 07:29:20;;;;;;;0.10;0.10;;;;;;;30.80;23.11;98562.50;5112663;28;20027;-74
2021/05/06 07:31:47;;;;;;;1.02;0.10;;;;;;;31.22;22.81;98553.28;5112531;28;20027;-76
2021/05/06 07:34:12;;;;;;;0.20;0.20;;;;;;;31.74;22.15;98546.34;5113174;28;20027;-74
2021/05/06 07:36:38;;;;;;;0.13;0.13;;;;;;;31.77;23.06;98548.03;5113124;28;20036;-75
2021/05/06 07:39:05;;;;;;;0.20;0.20;;;;;;;32.03;21.08;98511.56;5112338;28;20063;-75
2021/05/06 07:41:31;;;;;;;0.17;0.10;;;;;;;31.05;22.43;98556.81;5112264;28;20062;-75
2021/05/06 07:43:56;;;;;;;0.13;0.13;;;;;;;30.04;23.35;98557.09;5112741;28;20036;-76
2021/05/06 07:46:22;;;;;;;0.35;0.35;;;;;;;30.78;25.51;98561.56;5112201;28;20529;-75
2021/05/06 07:48:48;;;;;;;0.10;0.10;;;;;;;30.51;23.74;98542.09;5112323;28;20024;-75
2021/05/06 07:51:13;;;;;;;2.38;1.20;;;;;;;30.15;24.64;98565.22;5112467;28;20057;-77
2021/05/06 07:53:49;;;;;;;0.10;0.10;;;;;;;29.84;24.05;98560.91;5112927;28;20046;-79
2021/05/06 07:56:15;;;;;;;0.35;0.35;;;;;;;28.00;24.76;98487.25;5106613;28;20012;-76
2021/05/06 07:58:41;;;;;;;0.75;0.47;;;;;;;27.02;27.17;98546.91;5087878;28;20031;-75
2021/05/06 08:01:07;;;;;;;0.10;0.10;;;;;;;27.76;29.34;98561.53;5091799;28;20514;-75
2021/05/06 08:03:33;;;;;;;0.20;0.20;;;;;;;27.93;27.25;98548.38;5091591;28;20024;-75
2021/05/06 08:05:59;;;;;;;1.30;0.30;;;;;;;28.66;28.48;98547.00;5092180;28;20032;-76
2021/05/06 08:08:25;;;;;;;1.27;0.73;;;;;;;29.42;24.49;98534.97;5091525;28;20399;-78
2021/05/06 08:10:52;;;;;;;0.15;0.15;;;;;;;27.71;27.02;98556.78;5091886;28;20210;-74
2021/05/06 08:13:21;;;;;;;0.15;0.15;;;;;;;25.35;29.56;98556.84;5091301;28;20031;-77
2021/05/06 08:15:47;;;;;;;0.10;0.10;;;;;;;23.96;33.59;98522.16;5091799;28;20100;-75
2021/05/06 08:18:13;;;;;;;0.40;0.40;;;;;;;23.39;34.17;98509.97;5112111;28;20028;-75
2021/05/06 08:20:41;;;;;;;0.15;0.15;;;;;;;23.13;34.89;98532.28;5112161;28;20123;-74
2021/05/06 08:23:06;;;;;;;;;;;;;;;23.55;38.26;98544.22;5112377;28;20100;-77
2021/05/06 08:25:32;;;;;;;0.20;0.20;;;;;;;23.14;35.04;98533.81;5112125;28;20375;-75
2021/05/06 08:27:57;;;;;;;1.17;0.30;;;;;;;23.43;36.52;98546.34;5111901;28;20063;-74
2021/05/06 08:30:23;;;;;;;0.20;0.20;;;;;;;23.55;32.46;98555.47;5104770;28;20403;-74
2021/05/06 08:32:48;;;;;;;0.45;0.45;;;;;;;23.77;33.88;98563.69;5091847;28;20071;-76
2021/05/06 08:35:14;;;;;;;0.10;0.10;;;;;;;23.55;34.02;98544.22;5091817;28;20024;-76
2021/05/06 08:37:39;;;;;;;0.40;0.40;;;;;;;23.74;33.81;98531.69;5091538;28;20059;-74
2021/05/06 08:40:07;;;;;;;0.20;0.20;;;;;;;24.13;34.80;98541.72;5091749;28;20491;-75
2021/05/06 08:42:34;;;;;;;0.10;0.10;;;;;;;24.14;33.50;98498.84;5092589;28;20071;-77
2021/05/06 08:44:59;;;;;;;0.90;0.35;;;;;;;24.79;34.89;98554.13;5093662;28;20123;-75
2021/05/06 08:47:26;;;;;;;0.30;0.30;;;;;;;25.07;34.16;98533.94;5092226;28;20038;-78
2021/05/06 08:49:51;;;;;;;0.22;0.22;;;;;;;24.66;32.55;98537.13;5090176;28;20027;-76
2021/05/06 08:52:19;;;;;;;0.52;0.30;;;;;;;24.65;30.84;98524.31;5089254;28;20031;-76
2021/05/06 08:54:47;;;;;;;0.05;0.05;;;;;;;25.00;31.02;98549.47;5090826;28;20031;-77
2021/05/06 08:57:13;;;;;;;;;;;;;;;25.31;30.79;98547.91;5090181;28;20055;-78
2021/05/06 08:59:38;;;;;;;0.10;0.10;;;;;;;25.19;29.57;98537.34;5089739;28;20392;-80
2021/05/06 09:02:04;;;;;;;0.10;0.10;;;;;;;25.21;29.92;98531.88;5090477;28;20024;-77
2021/05/06 09:04:31;;;;;;;0.30;0.30;;;;;;;25.25;31.21;98524.63;5092864;28;20036;-75
2021/05/06 09:07:10;;;;;;;0.10;0.10;;;;;;;25.37;32.39;98539.34;5091761;28;20028;-77
2021/05/06 09:09:36;;;;;;;0.98;0.57;;;;;;;25.37;31.09;98537.25;5091489;28;20031;-76
2021/05/06 09:12:04;;;;;;;0.17;0.17;;;;;;;24.76;30.91;98503.59;5090675;28;20024;-77
2021/05/06 09:14:48;;;;;;;0.40;0.32;;;;;;;25.04;34.22;98529.34;5090342;28;20031;-76
2021/05/06 09:17:27;;;;;;;0.10;0.10;;;;;;;25.10;31.14;98508.16;5091828;28;20059;-77
2021/05/06 09:20:13;;;;;;;1.48;0.20;;;;;;;24.71;29.42;98545.50;5092039;28;20027;-75
2021/05/06 09:22:50;;;;;;;0.52;0.17;;;;;;;24.32;32.28;98520.69;5094903;28;20503;-75
2021/05/06 09:25:32;;;;;;;0.10;0.10;;;;;;;24.35;35.87;98493.44;5094997;28;20063;-77
2021/05/06 09:28:19;;;;;;;0.10;0.10;;;;;;;24.25;28.69;98484.59;5094858;28;20032;-76
2021/05/06 09:31:05;;;;;;;0.00;0.00;;;;;;;24.57;31.08;98548.84;5094892;28;20107;-75
2021/05/06 09:33:41;;;;;;;0.00;0.00;;;;;;;24.19;30.05;98514.19;5095296;28;20035;-74
2021/05/06 09:36:19;;;;;;;0.00;0.00;;;;;;;24.29;30.45;98535.13;5094825;28;20055;-75
2021/05/06 09:38:48;;;;;;;0.28;0.28;;;;;;;24.32;30.84;98517.84;5094691;28;20035;-77
2021/05/06 09:41:18;;;;;;;0.10;0.10;;;;;;;24.39;30.82;98532.66;5094039;28;20047;-76
2021/05/06 09:43:44;;;;;;;0.52;0.43;;;;;;;24.20;31.42;98495.97;5095074;28;20469;-76
2021/05/06 09:46:31;;;;;;;0.15;0.15;;;;;;;24.74;32.10;98529.56;5094687;28;20063;-77
2021/05/06 09:49:07;;;;;;;0.07;0.07;;;;;;;25.16;30.31;98544.81;5081031;28;20040;-78
2021/05/06 09:51:34;;;;;;;0.17;0.17;;;;;;;24.70;32.13;98529.13;5094820;28;20107;-76
2021/05/06 09:54:01;;;;;;;0.67;0.23;;;;;;;24.59;31.10;98546.25;5095418;28;20024;-74
2021/05/06 09:56:28;;;;;;;0.57;0.57;;;;;;;24.21;30.23;98531.38;5094670;28;20123;-77
2021/05/06 09:58:55;;;;;;;0.20;0.20;;;;;;;24.16;28.79;98547.06;5093680;28;20060;-78
2021/05/06 10:01:22;;;;;;;0.60;0.60;;;;;;;24.54;30.24;98535.75;5093782;28;20141;-75
2021/05/06 10:03:48;;;;;;;0.05;0.05;;;;;;;24.98;28.25;98543.59;5094264;28;20466;-75
2021/05/06 10:06:18;;;;;;;0.10;0.10;;;;;;;25.09;29.13;98495.34;5093816;28;20028;-74
2021/05/06 10:08:45;;;;;;;0.17;0.17;;;;;;;25.31;27.60;98482.09;5093769;28;20446;-74
2021/05/06 10:11:18;;;;;;;0.93;0.63;;;;;;;25.69;28.89;98525.88;5094023;28;20035;-75
2021/05/06 10:13:46;;;;;;;0.20;0.20;;;;;;;25.92;30.38;98521.28;5094300;28;20024;-75
2021/05/06 10:16:13;;;;;;;;;;;;;;;26.03;28.98;98517.47;5094505;28;20035;-76
2021/05/06 10:18:45;;;;;;;0.10;0.10;;;;;;;25.19;28.28;98466.66;5093609;28;19957;-73
2021/05/06 10:21:19;;;;;;;0.10;0.10;;;;;;;25.05;29.68;98528.81;5093459;28;20020;-76
2021/05/06 10:23:46;;;;;;;3.10;1.05;;;;;;;24.94;29.46;98526.19;5093582;28;20178;-74
2021/05/06 10:26:12;;;;;;;0.10;0.10;;;;;;;25.16;31.79;98525.03;5093421;28;20028;-76
2021/05/06 10:28:38;;;;;;;0.10;0.10;;;;;;;25.46;28.22;98521.91;5093839;28;20024;-73
2021/05/06 10:31:10;;;;;;;0.17;0.17;;;;;;;25.63;29.84;98519.56;5092848;28;20024;-74
2021/05/06 10:33:43;;;;;;;3.13;0.20;;;;;;;25.53;29.91;98529.75;5093250;28;20024;-76
2021/05/06 10:36:10;;;;;;;0.57;0.50;;;;;;;25.54;27.66;98534.13;5093731;28;20093;-75
2021/05/06 10:38:42;;;;;;;0.10;0.10;;;;;;;25.37;26.08;98511.81;5092963;28;20434;-74
2021/05/06 10:41:23;;;;;;;0.40;0.40;;;;;;;25.50;28.05;98500.47;5093288;28;20020;-77
2021/05/06 10:43:53;;;;;;;0.00;0.00;;;;;;;25.40;27.90;98473.94;5092876;28;20031;-75
2021/05/06 10:46:18;;;;;;;0.15;0.15;;;;;;;25.24;27.17;98513.84;5092774;28;20027;-79
2021/05/06 10:49:02;;;;;;;0.13;0.13;;;;;;;25.29;29.15;98490.34;5092828;28;20024;-76
2021/05/06 10:51:56;;;;;;;0.00;0.00;;;;;;;25.24;27.19;98519.50;5093451;28;20434;-75
2021/05/06 10:54:42;;;;;;;0.10;0.10;;;;;;;25.23;28.25;98489.69;5072447;28;20028;-74
2021/05/06 10:57:08;;;;;;;0.13;0.13;;;;;;;25.54;28.33;98522.81;5072487;28;20032;-73
2021/05/06 10:59:38;;;;;;;0.47;0.10;;;;;;;25.58;30.78;98480.81;5072403;28;20032;-78
2021/05/06 11:02:04;;;;;;;3.95;0.25;;;;;;;25.79;28.82;98529.03;5072863;28;20511;-75
2021/05/06 11:04:32;;;;;;;1.27;0.45;;;;;;;25.13;28.66;98492.19;5074630;28;20020;-77
2021/05/06 11:07:23;;;;;;;;;;;;;;;25.42;33.58;98527.16;5074020;28;20033;-76
2021/05/06 11:09:51;;;;;;;0.03;0.03;;;;;;;25.02;29.93;98532.72;5072408;28;19908;-74
2021/05/06 11:12:47;;;;;;;0.40;0.40;;;;;;;24.79;34.02;98531.53;5072301;28;20047;-73
2021/05/06 11:15:32;;;;;;;0.10;0.10;;;;;;;24.63;31.81;98524.84;5059254;28;20036;-73
2021/05/06 11:18:00;;;;;;;0.00;0.00;;;;;;;24.58;29.27;98544.72;5072296;28;20028;-74
2021/05/06 11:20:28;;;;;;;0.20;0.20;;;;;;;24.41;33.17;98530.06;5071967;28;20021;-75
2021/05/06 11:22:57;;;;;;;0.20;0.20;;;;;;;24.45;30.85;98531.28;5072112;28;20127;-75
2021/05/06 11:25:46;;;;;;;0.32;0.20;;;;;;;24.11;30.10;98505.53;5072095;28;20028;-74
2021/05/06 11:28:11;;;;;;;0.25;0.25;;;;;;;24.34;30.73;98537.09;5072660;28;20024;-73
2021/05/06 11:30:36;;;;;;;0.22;0.20;;;;;;;24.36;30.63;98539.38;5072205;28;20035;-74
2021/05/06 11:36:05;;;;;;;0.10;0.10;;;;;;;24.61;31.89;98524.63;5073239;28;20093;-73
2021/05/06 11:38:41;;;;;;;0.10;0.10;;;;;;;24.36;29.52;98514.72;5072397;28;20036;-77
2021/05/06 11:41:09;;;;;;;0.10;0.10;;;;;;;24.22;31.27;98463.09;5071974;28;20032;-74
2021/05/06 11:43:47;;;;;;;0.38;0.32;;;;;;;24.60;29.42;98513.84;5071132;28;20081;-75
2021/05/06 11:46:17;;;;;;;2.50;0.52;;;;;;;24.31;30.43;98457.03;5071755;28;20036;-73
2021/05/06 11:48:48;;;;;;;1.65;1.05;;;;;;;25.08;30.07;98513.59;5071738;28;20024;-74
2021/05/06 11:51:28;;;;;;;0.00;0.00;;;;;;;25.00;27.16;98461.06;5071703;28;20399;-75
2021/05/06 11:54:18;;;;;;;0.20;0.20;;;;;;;25.30;28.00;98480.56;5071727;28;20029;-75
2021/05/06 11:56:54;;;;;;;0.15;0.15;;;;;;;25.74;27.47;98493.13;5073215;28;20028;-75
2021/05/06 11:59:23;;;;;;;0.15;0.15;;;;;;;25.70;26.02;98492.66;5072063;28;20170;-74
2021/05/06 12:01:49;;;;;;;0.25;0.25;;;;;;;25.62;26.27;98491.81;5071670;28;20396;-74
2021/05/06 12:04:34;;;;;;;0.55;0.55;;;;;;;25.85;28.00;98487.22;5071907;28;20048;-74
2021/05/06 12:07:14;;;;;;;0.68;0.55;;;;;;;25.64;27.01;98477.88;5073152;28;20468;-73
2021/05/06 12:09:40;;;;;;;4.20;0.30;;;;;;;25.68;25.04;98486.81;5071591;28;20048;-74
2021/05/06 12:12:06;;;;;;;0.20;0.20;;;;;;;25.68;27.77;98481.88;5071548;28;20063;-74
2021/05/06 12:14:39;;;;;;;0.10;0.10;;;;;;;25.35;28.71;98507.97;5071184;28;20078;-75
2021/05/06 12:17:05;;;;;;;0.10;0.10;;;;;;;25.19;28.35;98494.91;5071554;28;20032;-74
2021/05/06 12:19:31;;;;;;;0.13;0.13;;;;;;;25.39;33.69;98500.69;5071400;28;20036;-74
2021/05/06 12:21:59;;;;;;;0.30;0.30;;;;;;;25.41;28.03;98449.25;5071844;28;20024;-74
2021/05/06 12:24:37;;;;;;;0.08;0.08;;;;;;;25.85;28.71;98479.50;5071547;28;20056;-75
2021/05/06 12:27:23;;;;;;;0.38;0.30;;;;;;;26.00;29.22;98486.63;5071293;28;20028;-75
2021/05/06 12:30:11;;;;;;;0.70;0.43;;;;;;;25.66;26.84;98466.78;5072175;28;20033;-74
2021/05/06 12:32:43;;;;;;;1.23;0.75;;;;;;;25.60;34.10;98481.03;5072005;28;20024;-75
2021/05/06 12:35:10;;;;;;;0.28;0.20;;;;;;;25.58;31.13;98475.16;5071401;28;20035;-75
2021/05/06 12:37:37;;;;;;;0.80;0.80;;;;;;;25.34;29.35;98476.09;5071904;28;20029;-73
2021/05/06 12:40:09;;;;;;;0.03;0.03;;;;;;;25.05;28.62;98458.16;5071225;28;20032;-74
2021/05/06 12:42:37;;;;;;;8.45;0.47;;;;;;;24.50;29.33;98445.69;5071065;28;20028;-74
2021/05/06 12:45:24;;;;;;;1.63;0.40;;;;;;;24.46;30.00;98438.84;5071499;28;20037;-78
2021/05/06 12:47:50;;;;;;;6.68;0.20;;;;;;;24.73;29.77;98465.88;5071835;28;20063;-76
2021/05/06 12:50:22;;;;;;;0.10;0.10;;;;;;;24.96;28.04;98443.66;5071731;28;20036;-76
2021/05/06 12:53:06;;;;;;;0.10;0.10;;;;;;;25.20;29.95;98451.94;5071320;28;20028;-78
2021/05/06 12:55:37;;;;;;;0.10;0.10;;;;;;;25.18;30.33;98437.59;5075638;28;20033;-78
2021/05/06 12:58:25;;;;;;;3.30;1.55;;;;;;;25.43;30.53;98438.91;5075704;28;20086;-78
2021/05/06 13:00:56;;;;;;;0.03;0.03;;;;;;;25.39;29.31;98418.66;5075325;28;20539;-74
2021/05/06 13:03:28;;;;;;;0.13;0.13;;;;;;;25.58;27.87;98443.28;5075365;28;20062;-77
2021/05/06 13:05:54;;;;;;;0.10;0.10;;;;;;;25.18;29.84;98414.22;5075342;28;20032;-76
2021/05/06 13:08:33;;;;;;;0.20;0.20;;;;;;;25.43;28.62;98446.63;5075424;28;20484;-77
2021/05/06 13:11:01;;;;;;;0.43;0.43;;;;;;;25.30;26.91;98407.03;5075357;28;20020;-77
2021/05/06 13:13:50;;;;;;;0.15;0.10;;;;;;;25.42;29.86;98428.13;5075075;28;20115;-76
2021/05/06 13:16:36;;;;;;;0.10;0.10;;;;;;;25.01;28.27;98398.34;5075656;28;20495;-76
2021/05/06 13:19:04;;;;;;;0.00;0.00;;;;;;;25.20;27.86;98428.59;5075275;28;20053;-76
2021/05/06 13:21:30;;;;;;;0.32;0.32;;;;;;;25.13;27.31;98401.72;5075476;28;20134;-76
2021/05/06 13:23:56;;;;;;;0.32;0.32;;;;;;;25.36;27.66;98419.00;5074742;28;20025;-77
2021/05/06 13:26:39;;;;;;;0.55;0.55;;;;;;;25.38;26.68;98399.41;5074854;28;20571;-77
2021/05/06 13:29:07;;;;;;;1.00;0.63;;;;;;;25.69;24.50;98431.72;5074762;28;20028;-77
2021/05/06 13:31:34;;;;;;;0.20;0.20;;;;;;;25.34;25.56;98367.88;5074779;28;20056;-78
2021/05/06 13:34:15;;;;;;;0.10;0.10;;;;;;;25.42;27.43;98403.44;5074875;28;20043;-77
2021/05/06 13:36:43;;;;;;;0.10;0.10;;;;;;;25.30;28.76;98395.72;5075318;28;20086;-75
2021/05/06 13:39:16;;;;;;;0.70;0.43;;;;;;;25.11;28.04;98393.78;5074415;28;20476;-74
2021/05/06 13:41:47;;;;;;;18.85;0.52;;;;;;;25.48;27.55;98423.13;5074201;28;20033;-75
2021/05/06 13:44:16;;;;;;;1.48;1.38;;;;;;;25.57;25.74;98428.34;5074259;28;20089;-75
2021/05/06 13:46:53;;;;;;;0.28;0.28;;;;;;;25.42;28.48;98414.75;5074497;28;20092;-75
2021/05/06 13:49:22;;;;;;;0.10;0.10;;;;;;;25.48;25.62;98418.25;5074959;28;20024;-76
2021/05/06 13:51:52;;;;;;;1.30;1.20;;;;;;;25.66;24.67;98407.34;5074168;28;20032;-75
2021/05/06 13:54:18;;;;;;;0.10;0.10;;;;;;;25.65;25.15;98383.94;5074051;28;20030;-74
2021/05/06 13:56:44;;;;;;;0.10;0.10;;;;;;;26.11;25.82;98407.09;5074079;28;20551;-75
2021/05/06 13:59:10;;;;;;;0.10;0.10;;;;;;;25.91;25.35;98371.81;5074134;28;20064;-75
2021/05/06 14:01:36;;;;;;;0.85;0.17;;;;;;;26.04;26.94;98380.22;5073788;28;20054;-75
2021/05/06 14:04:02;;;;;;;0.00;0.00;;;;;;;26.10;27.62;98405.59;5073857;28;20059;-73
2021/05/06 14:06:27;;;;;;;1.40;0.85;;;;;;;26.22;27.69;98378.53;5073200;28;20068;-75
2021/05/06 14:08:53;;;;;;;0.10;0.10;;;;;;;26.14;29.27;98380.53;5073914;28;20025;-75
2021/05/06 14:11:19;;;;;;;0.20;0.20;;;;;;;26.30;26.58;98414.13;5074115;28;20033;-75
2021/05/06 14:13:44;;;;;;;0.13;0.13;;;;;;;26.40;27.07;98403.09;5073890;28;20480;-74
2021/05/06 14:16:10;;;;;;;0.10;0.10;;;;;;;26.10;27.53;98389.34;5073667;28;20132;-76
2021/05/06 14:18:35;;;;;;;0.20;0.20;;;;;;;25.65;27.17;98395.28;5073635;28;20024;-74
2021/05/06 14:21:03;;;;;;;0.10;0.10;;;;;;;25.94;26.63;98415.97;5073924;28;20055;-74
2021/05/06 14:23:36;;;;;;;0.35;0.35;;;;;;;25.84;27.99;98420.59;5074153;28;20029;-73
2021/05/06 14:26:02;;;;;;;0.10;0.10;;;;;;;26.07;27.99;98418.00;5073466;28;20043;-76
2021/05/06 14:28:27;;;;;;;0.10;0.10;;;;;;;26.07;29.02;98396.13;5073513;28;20024;-76
2021/05/06 14:30:53;;;;;;;0.22;0.22;;;;;;;26.14;29.69;98400.34;5073376;28;20555;-75
2021/05/06 14:33:18;;;;;;;0.10;0.10;;;;;;;26.12;25.11;98419.97;5073139;28;20515;-75
2021/05/06 14:35:44;;;;;;;0.68;0.63;;;;;;;26.17;27.59;98407.72;5073239;28;20036;-76
2021/05/06 14:38:10;;;;;;;0.10;0.10;;;;;;;25.89;27.98;98405.56;5073207;28;20024;-76
2021/05/06 14:40:39;;;;;;;0.90;0.52;;;;;;;25.87;28.88;98402.50;5073517;28;20518;-77
2021/05/06 14:43:08;;;;;;;0.30;0.30;;;;;;;25.89;29.54;98414.03;5072921;28;20403;-75
2021/05/06 14:45:37;;;;;;;0.22;0.22;;;;;;;25.18;28.97;98372.56;5073221;28;20488;-76
2021/05/06 14:48:04;;;;;;;0.88;0.80;;;;;;;25.20;29.06;98372.03;5073437;28;20028;-79
2021/05/06 14:50:31;;;;;;;5.43;0.50;;;;;;;25.36;30.24;98413.34;5073643;28;20024;-75
2021/05/06 14:52:57;;;;;;;0.08;0.08;;;;;;;25.15;29.95;98387.78;5072927;28;20060;-75
2021/05/06 14:55:25;;;;;;;6.88;0.40;;;;;;;25.39;28.79;98400.94;5073759;28;20098;-73
2021/05/06 14:57:52;;;;;;;0.03;0.03;;;;;;;25.12;29.62;98388.88;5072913;28;20123;-74
2021/05/06 15:00:19;;;;;;;0.10;0.10;;;;;;;25.07;29.30;98401.81;5072473;28;20048;-76
2021/05/06 15:02:45;;;;;;;0.00;0.00;;;;;;;25.08;29.98;98411.81;5072609;28;20052;-74
2021/05/06 15:05:11;;;;;;;0.20;0.20;;;;;;;24.90;30.61;98414.72;5072977;28;20079;-74
2021/05/06 15:07:37;;;;;;;0.20;0.20;;;;;;;24.82;30.74;98423.06;5072570;28;20024;-76
2021/05/06 15:10:07;;;;;;;0.20;0.20;;;;;;;24.80;32.13;98416.44;5072846;28;20040;-76
2021/05/06 15:12:34;;;;;;;0.10;0.10;;;;;;;24.57;31.91;98387.81;5072398;28;20024;-76
2021/05/06 15:15:03;;;;;;;5.80;0.80;;;;;;;24.71;31.45;98409.88;5072393;28;20036;-74